createdAt,value
2023-03-06T00:00:38.549Z,3.65
2023-03-06T00:03:07.339Z,3.77
2023-03-06T00:05:34.643Z,3.59
2023-03-06T00:08:01.906Z,3.77
2023-03-06T00:10:30.648Z,3.68
2023-03-06T00:12:58.732Z,3.69
2023-03-06T00:15:26.715Z,3.66
2023-03-06T00:17:54.149Z,3.55
2023-03-06T00:20:23.036Z,3.57
2023-03-06T00:22:50.702Z,3.58
2023-03-06T00:25:18.838Z,3.67
2023-03-06T00:27:46.732Z,3.74
2023-03-06T00:30:15.514Z,3.63
2023-03-06T00:32:42.771Z,3.70
2023-03-06T00:35:10.559Z,3.66
2023-03-06T00:37:39.271Z,3.62
2023-03-06T00:40:07.159Z,3.55
2023-03-06T00:42:34.469Z,3.54
2023-03-06T00:45:01.808Z,3.55
2023-03-06T00:47:29.419Z,3.66
2023-03-06T00:49:56.751Z,3.45
2023-03-06T00:52:24.022Z,3.60
2023-03-06T00:54:52.749Z,3.47
2023-03-06T00:57:20.121Z,3.58
2023-03-06T00:59:47.398Z,3.78
2023-03-06T01:02:14.995Z,3.79
2023-03-06T01:04:42.389Z,3.68
2023-03-06T01:07:09.669Z,3.78
2023-03-06T01:09:36.924Z,3.70
2023-03-06T01:12:05.684Z,3.57
2023-03-06T01:14:32.964Z,3.66
2023-03-06T01:17:00.530Z,3.61
2023-03-06T01:19:27.799Z,3.66
2023-03-06T01:21:55.099Z,3.69
2023-03-06T01:24:23.920Z,3.52
2023-03-06T01:26:51.179Z,3.66
2023-03-06T01:29:21.112Z,3.62
2023-03-06T01:31:48.409Z,3.57
2023-03-06T01:34:15.670Z,3.50
2023-03-06T01:36:42.945Z,3.37
2023-03-06T01:39:10.268Z,3.36
2023-03-06T01:41:37.786Z,3.45
2023-03-06T01:44:05.165Z,3.39
2023-03-06T01:46:41.880Z,3.49
2023-03-06T01:49:16.014Z,3.53
2023-03-06T01:51:46.169Z,3.51
2023-03-06T01:54:16.233Z,3.49
2023-03-06T01:56:45.136Z,3.52
2023-03-06T01:59:12.709Z,3.38
2023-03-06T02:01:42.454Z,3.46
2023-03-06T02:04:09.936Z,3.41
2023-03-06T02:06:38.963Z,3.22
2023-03-06T02:09:06.997Z,3.34
2023-03-06T02:11:34.552Z,3.35
2023-03-06T02:14:01.967Z,3.34
2023-03-06T02:16:30.593Z,3.36
2023-03-06T02:18:59.818Z,3.35
2023-03-06T02:21:32.402Z,3.23
2023-03-06T02:24:17.619Z,3.24
2023-03-06T02:26:47.405Z,3.26
2023-03-06T02:29:15.653Z,3.30
2023-03-06T02:31:42.918Z,3.25
2023-03-06T02:34:34.553Z,3.33
2023-03-06T02:37:03.812Z,3.34
2023-03-06T02:39:34.442Z,3.28
2023-03-06T02:42:03.019Z,3.19
2023-03-06T02:44:31.302Z,3.09
2023-03-06T02:46:58.545Z,3.10
2023-03-06T02:49:26.562Z,3.10
2023-03-06T02:51:53.956Z,3.16
2023-03-06T02:54:21.248Z,3.17
2023-03-06T02:56:48.594Z,3.11
2023-03-06T02:59:17.201Z,3.07
2023-03-06T03:01:44.480Z,2.97
2023-03-06T03:04:11.866Z,3.16
2023-03-06T03:06:39.174Z,3.01
2023-03-06T03:09:07.305Z,3.07
2023-03-06T03:11:34.596Z,2.97
2023-03-06T03:14:01.843Z,2.80
2023-03-06T03:16:30.492Z,2.70
2023-03-06T03:18:57.729Z,2.59
2023-03-06T03:21:25.018Z,2.85
2023-03-06T03:23:52.273Z,2.70
2023-03-06T03:26:20.813Z,2.57
2023-03-06T03:28:48.102Z,2.61
2023-03-06T03:31:15.496Z,2.65
2023-03-06T03:33:44.119Z,2.61
2023-03-06T03:36:11.400Z,2.56
2023-03-06T03:38:38.673Z,2.47
2023-03-06T03:41:06.277Z,2.54
2023-03-06T03:43:33.546Z,2.45
2023-03-06T03:46:00.848Z,2.34
2023-03-06T03:48:28.250Z,2.44
2023-03-06T03:51:02.966Z,2.35
2023-03-06T03:53:30.215Z,2.26
2023-03-06T03:55:57.457Z,2.44
2023-03-06T03:58:24.711Z,2.60
2023-03-06T04:00:52.021Z,2.34
2023-03-06T04:03:19.556Z,2.36
2023-03-06T04:05:46.863Z,2.34
2023-03-06T04:08:15.455Z,2.35
2023-03-06T04:10:42.691Z,2.50
2023-03-06T04:13:10.321Z,2.30
2023-03-06T04:15:37.879Z,2.44
2023-03-06T04:18:05.317Z,2.34
2023-03-06T04:20:32.601Z,2.37
2023-03-06T04:22:59.854Z,2.39
2023-03-06T04:25:28.423Z,2.34
2023-03-06T04:27:55.723Z,2.29
2023-03-06T04:30:24.625Z,2.36
2023-03-06T04:32:51.883Z,2.44
2023-03-06T04:35:19.324Z,2.41
2023-03-06T04:37:46.578Z,2.54
2023-03-06T04:40:17.963Z,2.42
2023-03-06T04:42:46.635Z,2.39
2023-03-06T04:45:14.009Z,2.35
2023-03-06T04:47:41.285Z,2.34
2023-03-06T04:50:09.576Z,2.29
2023-03-06T04:52:37.042Z,2.34
2023-03-06T04:55:08.581Z,2.23
2023-03-06T04:57:35.966Z,2.12
2023-03-06T05:00:05.973Z,2.36
2023-03-06T05:02:34.221Z,2.26
2023-03-06T05:05:01.622Z,2.28
2023-03-06T05:07:29.069Z,2.22
2023-03-06T05:09:56.653Z,2.26
2023-03-06T05:12:23.905Z,2.22
2023-03-06T05:14:51.171Z,2.07
2023-03-06T05:17:19.759Z,2.16
2023-03-06T05:19:47.009Z,2.15
2023-03-06T05:22:14.279Z,1.92
2023-03-06T05:24:41.690Z,2.07
2023-03-06T05:27:08.949Z,2.12
2023-03-06T05:29:36.264Z,2.13
2023-03-06T05:32:03.662Z,2.04
2023-03-06T05:34:32.365Z,2.01
2023-03-06T05:37:01.704Z,1.95
2023-03-06T05:39:29.001Z,1.89
2023-03-06T05:41:56.291Z,1.90
2023-03-06T05:44:23.899Z,1.91
2023-03-06T05:46:51.529Z,1.96
2023-03-06T05:49:18.783Z,1.91
2023-03-06T05:51:47.361Z,1.85
2023-03-06T05:54:14.614Z,1.87
2023-03-06T05:56:42.956Z,2.02
2023-03-06T05:59:10.256Z,1.96
2023-03-06T06:01:37.529Z,1.96
2023-03-06T06:04:04.899Z,2.08
2023-03-06T06:06:32.181Z,2.04
2023-03-06T06:09:00.818Z,2.13
2023-03-06T06:11:28.095Z,2.16
2023-03-06T06:13:55.375Z,2.17
2023-03-06T06:16:22.766Z,2.25
2023-03-06T06:18:50.041Z,2.20
2023-03-06T06:21:17.294Z,2.28
2023-03-06T06:23:44.630Z,2.28
2023-03-06T06:26:13.266Z,2.39
2023-03-06T06:28:40.543Z,2.55
2023-03-06T06:31:08.505Z,2.43
2023-03-06T06:33:36.197Z,2.65
2023-03-06T06:36:03.547Z,2.59
2023-03-06T06:38:30.812Z,2.65
2023-03-06T06:41:27.168Z,2.53
2023-03-06T06:43:46.643Z,2.67
2023-03-06T06:46:41.905Z,2.80
2023-03-06T06:49:02.911Z,2.98
2023-03-06T06:51:31.396Z,3.15
2023-03-06T06:53:58.685Z,2.99
2023-03-06T06:56:26.057Z,3.18
2023-03-06T06:58:57.423Z,2.97
2023-03-06T07:01:29.056Z,2.92
2023-03-06T07:03:56.654Z,2.99
2023-03-06T07:06:23.954Z,3.14
2023-03-06T07:08:51.256Z,3.26
2023-03-06T07:11:19.223Z,3.39
2023-03-06T07:13:47.091Z,3.36
2023-03-06T07:16:17.230Z,3.53
2023-03-06T07:18:45.273Z,3.53
2023-03-06T07:21:12.758Z,3.68
2023-03-06T07:23:40.066Z,3.74
2023-03-06T07:26:07.480Z,3.76
2023-03-06T07:28:49.828Z,3.53
2023-03-06T07:31:22.069Z,3.65
2023-03-06T07:33:49.388Z,3.61
2023-03-06T07:36:16.961Z,3.70
2023-03-06T07:38:44.226Z,3.73
2023-03-06T07:41:13.472Z,3.81
2023-03-06T07:43:41.198Z,3.76
2023-03-06T07:46:08.822Z,3.64
2023-03-06T07:48:37.968Z,3.72
2023-03-06T07:51:06.383Z,4.05
2023-03-06T07:53:34.281Z,4.09
2023-03-06T07:56:04.651Z,4.24
2023-03-06T07:58:31.980Z,4.33
2023-03-06T08:01:03.503Z,4.52
2023-03-06T08:03:30.765Z,4.70
2023-03-06T08:06:06.640Z,4.71
2023-03-06T08:08:34.388Z,4.69
2023-03-06T08:11:01.650Z,4.73
2023-03-06T08:13:28.923Z,4.95
2023-03-06T08:15:56.649Z,5.02
2023-03-06T08:18:23.976Z,5.16
2023-03-06T08:20:51.230Z,5.31
2023-03-06T08:23:19.813Z,5.14
2023-03-06T08:25:47.078Z,5.42
2023-03-06T08:28:14.375Z,5.15
2023-03-06T08:30:42.550Z,4.94
2023-03-06T08:33:09.882Z,5.21
2023-03-06T08:35:37.234Z,5.16
2023-03-06T08:38:04.535Z,5.24
2023-03-06T08:40:33.110Z,5.46
2023-03-06T08:43:00.393Z,5.41
2023-03-06T08:45:27.696Z,5.51
2023-03-06T08:47:55.009Z,5.46
2023-03-06T08:50:22.282Z,5.38
2023-03-06T08:52:49.606Z,5.37
2023-03-06T08:55:17.015Z,5.49
2023-03-06T08:57:46.277Z,5.49
2023-03-06T09:00:14.314Z,5.49
2023-03-06T09:02:41.728Z,5.48
2023-03-06T09:05:09.597Z,4.96
2023-03-06T09:07:36.915Z,5.08
2023-03-06T09:10:04.416Z,5.20
2023-03-06T09:12:37.372Z,5.26
2023-03-06T09:15:16.055Z,5.12
2023-03-06T09:17:43.363Z,5.36
2023-03-06T09:20:13.172Z,4.87
2023-03-06T09:22:42.321Z,4.86
2023-03-06T09:25:10.476Z,5.12
2023-03-06T09:27:37.825Z,5.17
2023-03-06T09:30:05.582Z,5.09
2023-03-06T09:32:34.220Z,5.31
2023-03-06T09:35:01.768Z,5.56
2023-03-06T09:37:29.051Z,5.70
2023-03-06T09:39:56.341Z,5.37
2023-03-06T09:42:24.201Z,5.55
2023-03-06T09:44:54.703Z,5.65
2023-03-06T09:47:36.927Z,5.96
2023-03-06T09:50:11.119Z,5.97
2023-03-06T09:52:43.420Z,6.21
2023-03-06T09:55:12.558Z,6.55
2023-03-06T09:57:42.977Z,6.55
2023-03-06T10:00:14.543Z,6.68
2023-03-06T10:02:43.594Z,6.90
2023-03-06T10:05:14.752Z,7.04
2023-03-06T10:07:45.396Z,6.94
2023-03-06T10:10:17.764Z,6.44
2023-03-06T10:12:48.719Z,6.43
2023-03-06T10:15:18.645Z,6.50
2023-03-06T10:17:46.150Z,6.49
2023-03-06T10:20:19.547Z,6.63
2023-03-06T10:23:00.840Z,6.31
2023-03-06T10:25:32.661Z,6.46
2023-03-06T10:28:04.157Z,6.40
2023-03-06T10:30:39.578Z,6.18
2023-03-06T10:33:10.165Z,6.03
2023-03-06T10:35:46.193Z,6.22
2023-03-06T10:38:16.728Z,6.14
2023-03-06T10:40:47.263Z,6.35
2023-03-06T10:43:14.733Z,6.28
2023-03-06T10:45:49.445Z,6.24
2023-03-06T10:48:19.734Z,6.39
2023-03-06T10:50:48.598Z,6.32
2023-03-06T10:53:23.456Z,6.33
2023-03-06T10:55:55.646Z,6.12
2023-03-06T10:58:24.956Z,6.43
2023-03-06T11:01:01.234Z,6.02
2023-03-06T11:03:28.562Z,6.51
2023-03-06T11:05:59.302Z,6.60
2023-03-06T11:08:26.743Z,6.68
2023-03-06T11:10:58.453Z,6.63
2023-03-06T11:13:27.284Z,6.43
2023-03-06T11:16:02.974Z,6.27
2023-03-06T11:18:34.909Z,6.21
2023-03-06T11:21:07.112Z,6.09
2023-03-06T11:23:38.173Z,5.90
2023-03-06T11:26:10.710Z,6.00
2023-03-06T11:28:40.286Z,5.94
2023-03-06T11:31:11.229Z,6.12
2023-03-06T11:33:41.887Z,5.37
2023-03-06T11:36:14.226Z,5.17
2023-03-06T11:38:45.039Z,5.39
2023-03-06T11:41:16.721Z,5.39
2023-03-06T11:43:49.576Z,5.19
2023-03-06T11:46:21.474Z,5.56
2023-03-06T11:48:52.809Z,5.63
2023-03-06T11:51:22.815Z,5.70
2023-03-06T11:53:50.090Z,5.71
2023-03-06T11:56:25.877Z,5.73
2023-03-06T11:58:57.296Z,5.65
2023-03-06T12:01:27.965Z,5.58
2023-03-06T12:04:13.011Z,5.50
2023-03-06T12:06:48.144Z,5.89
2023-03-06T12:09:24.158Z,6.42
2023-03-06T12:12:00.665Z,6.56
2023-03-06T12:14:37.972Z,6.74
2023-03-06T12:17:13.390Z,6.55
2023-03-06T12:19:55.420Z,6.57
2023-03-06T12:22:32.308Z,6.92
2023-03-06T12:25:07.517Z,6.54
2023-03-06T12:27:39.190Z,6.59
2023-03-06T12:30:17.548Z,6.54
2023-03-06T12:32:48.963Z,6.65
2023-03-06T12:35:23.370Z,6.57
2023-03-06T12:37:58.869Z,6.76
2023-03-06T12:40:44.189Z,6.86
2023-03-06T12:43:27.540Z,6.59
2023-03-06T12:45:57.708Z,6.21
2023-03-06T12:48:27.652Z,5.98
2023-03-06T12:50:55.152Z,6.10
2023-03-06T12:53:27.223Z,5.99
2023-03-06T12:55:55.699Z,5.95
2023-03-06T12:58:35.567Z,6.20
2023-03-06T13:01:10.474Z,5.90
2023-03-06T13:03:49.417Z,6.27
2023-03-06T13:06:34.115Z,5.98
2023-03-06T13:09:12.068Z,6.05
2023-03-06T13:11:54.262Z,5.81
2023-03-06T13:14:29.199Z,5.61
2023-03-06T13:17:16.629Z,5.32
2023-03-06T13:19:47.063Z,4.93
2023-03-06T13:22:15.315Z,4.64
2023-03-06T13:24:43.904Z,4.35
2023-03-06T13:27:12.183Z,4.16
2023-03-06T13:29:57.491Z,4.31
2023-03-06T13:32:29.853Z,4.32
2023-03-06T13:34:58.569Z,4.43
2023-03-06T13:37:39.277Z,4.54
2023-03-06T13:40:25.440Z,4.82
2023-03-06T13:43:03.451Z,5.01
2023-03-06T13:45:35.293Z,5.16
2023-03-06T13:48:24.887Z,5.28
2023-03-06T13:50:52.130Z,5.46
2023-03-06T13:53:38.307Z,5.72
2023-03-06T13:56:24.491Z,5.35
2023-03-06T13:58:58.638Z,5.07
2023-03-06T14:01:45.076Z,5.12
2023-03-06T14:04:32.902Z,5.20
2023-03-06T14:07:11.172Z,5.53
2023-03-06T14:09:39.531Z,5.75
2023-03-06T14:12:08.093Z,5.95
2023-03-06T14:14:43.791Z,6.19
2023-03-06T14:17:19.105Z,6.34
2023-03-06T14:19:46.558Z,6.60
2023-03-06T14:22:17.561Z,6.63
2023-03-06T14:24:52.077Z,6.52
2023-03-06T14:27:19.650Z,6.52
2023-03-06T14:29:48.641Z,6.58
2023-03-06T14:32:17.641Z,6.68
2023-03-06T14:34:46.645Z,6.63
2023-03-06T14:37:22.048Z,6.39
2023-03-06T14:39:49.939Z,5.95
2023-03-06T14:42:18.779Z,5.80
2023-03-06T14:44:46.095Z,5.96
2023-03-06T14:47:20.658Z,5.53
2023-03-06T14:49:47.936Z,5.84
2023-03-06T14:52:18.920Z,5.99
2023-03-06T14:54:47.527Z,5.90
2023-03-06T14:57:16.055Z,6.03
2023-03-06T14:59:46.571Z,6.07
2023-03-06T15:02:18.953Z,6.07
2023-03-06T15:04:47.912Z,5.73
2023-03-06T15:07:16.925Z,5.90
2023-03-06T15:09:45.679Z,6.09
2023-03-06T15:12:29.694Z,6.00
2023-03-06T15:14:59.613Z,5.87
2023-03-06T15:17:29.594Z,5.70
2023-03-06T15:19:57.901Z,5.55
2023-03-06T15:22:30.055Z,5.80
2023-03-06T15:25:10.734Z,5.76
2023-03-06T15:27:38.551Z,5.70
2023-03-06T15:30:21.635Z,5.88
2023-03-06T15:32:48.918Z,5.68
2023-03-06T15:35:37.360Z,5.56
2023-03-06T15:38:23.361Z,5.57
2023-03-06T15:40:55.527Z,5.45
2023-03-06T15:43:22.831Z,5.59
2023-03-06T15:45:51.720Z,5.60
2023-03-06T15:48:19.071Z,5.59
2023-03-06T15:50:46.380Z,5.75
2023-03-06T15:53:13.729Z,5.71
2023-03-06T15:55:41.019Z,5.58
2023-03-06T15:58:12.446Z,5.55
2023-03-06T16:00:40.857Z,5.44
2023-03-06T16:03:11.378Z,5.46
2023-03-06T16:05:39.037Z,5.18
2023-03-06T16:08:06.796Z,5.09
2023-03-06T16:10:36.804Z,4.72
2023-03-06T16:13:06.696Z,3.94
2023-03-06T16:15:37.112Z,3.65
2023-03-06T16:18:04.880Z,3.45
2023-03-06T16:20:33.649Z,3.54
2023-03-06T16:23:01.071Z,3.02
2023-03-06T16:25:28.624Z,2.84
2023-03-06T16:27:58.814Z,2.79
2023-03-06T16:30:27.565Z,3.07
2023-03-06T16:32:54.860Z,2.88
2023-03-06T16:35:22.190Z,3.06
2023-03-06T16:37:51.080Z,3.07
2023-03-06T16:40:20.212Z,3.07
2023-03-06T16:42:48.079Z,3.24
2023-03-06T16:45:15.769Z,3.12
2023-03-06T16:47:43.251Z,3.18
2023-03-06T16:50:20.458Z,2.93
2023-03-06T16:52:47.751Z,3.03
2023-03-06T16:55:16.444Z,3.05
2023-03-06T16:57:43.748Z,2.96
2023-03-06T17:00:12.167Z,3.01
2023-03-06T17:02:39.808Z,3.15
2023-03-06T17:05:08.252Z,3.39
2023-03-06T17:07:35.978Z,3.42
2023-03-06T17:10:03.340Z,3.47
2023-03-06T17:12:31.961Z,3.51
2023-03-06T17:14:59.218Z,3.60
2023-03-06T17:17:26.899Z,3.34
2023-03-06T17:19:54.224Z,3.49
2023-03-06T17:22:21.759Z,3.55
2023-03-06T17:24:49.936Z,3.60
2023-03-06T17:27:17.294Z,3.61
2023-03-06T17:29:46.061Z,3.56
2023-03-06T17:32:13.823Z,3.67
2023-03-06T17:34:44.328Z,3.73
2023-03-06T17:37:11.645Z,3.69
2023-03-06T17:39:39.482Z,3.63
2023-03-06T17:42:07.253Z,3.67
2023-03-06T17:44:34.591Z,3.73
2023-03-06T17:47:03.770Z,3.73
2023-03-06T17:49:31.052Z,3.67
2023-03-06T17:51:59.732Z,3.64
2023-03-06T17:54:29.141Z,3.73
2023-03-06T17:56:56.472Z,3.80
2023-03-06T17:59:24.268Z,3.75
2023-03-06T18:01:51.594Z,3.71
2023-03-06T18:04:20.222Z,3.80
2023-03-06T18:06:47.530Z,3.66
2023-03-06T18:09:14.848Z,3.71
2023-03-06T18:11:42.354Z,3.72
2023-03-06T18:14:10.202Z,3.74
2023-03-06T18:16:37.522Z,3.68
2023-03-06T18:19:04.789Z,3.71
2023-03-06T18:21:33.422Z,3.68
2023-03-06T18:24:00.707Z,3.60
2023-03-06T18:26:28.779Z,3.55
2023-03-06T18:28:57.113Z,3.69
2023-03-06T18:31:25.712Z,3.58
2023-03-06T18:33:54.038Z,3.70
2023-03-06T18:36:22.727Z,3.65
2023-03-06T18:38:51.540Z,3.47
2023-03-06T18:41:19.312Z,3.42
2023-03-06T18:43:46.652Z,3.38
2023-03-06T18:46:13.892Z,3.52
2023-03-06T18:48:41.150Z,3.32
2023-03-06T18:51:09.148Z,3.39
2023-03-06T18:53:36.932Z,3.15
2023-03-06T18:56:05.793Z,3.57
2023-03-06T18:58:33.218Z,3.41
2023-03-06T19:01:02.104Z,3.41
2023-03-06T19:03:29.433Z,3.52
2023-03-06T19:05:56.748Z,3.54
2023-03-06T19:08:24.827Z,3.44
2023-03-06T19:10:52.078Z,3.37
2023-03-06T19:13:20.643Z,3.44
2023-03-06T19:15:51.375Z,3.38
2023-03-06T19:18:19.248Z,3.38
2023-03-06T19:20:46.897Z,3.40
2023-03-06T19:23:14.309Z,3.30
2023-03-06T19:25:42.807Z,3.32
2023-03-06T19:28:10.813Z,3.52
2023-03-06T19:30:41.645Z,3.37
2023-03-06T19:33:10.831Z,3.35
2023-03-06T19:35:38.160Z,3.43
2023-03-06T19:38:05.962Z,3.49
2023-03-06T19:40:34.041Z,3.55
2023-03-06T19:43:01.293Z,3.66
2023-03-06T19:45:28.568Z,3.67
2023-03-06T19:48:00.703Z,3.64
2023-03-06T19:50:29.511Z,3.70
2023-03-06T19:52:57.277Z,3.72
2023-03-06T19:55:26.327Z,3.68
2023-03-06T19:57:54.432Z,3.68
2023-03-06T20:00:22.062Z,3.68
2023-03-06T20:02:49.469Z,3.62
2023-03-06T20:05:18.234Z,3.50
2023-03-06T20:07:45.509Z,3.54
2023-03-06T20:10:12.912Z,3.30
2023-03-06T20:12:40.345Z,3.28
2023-03-06T20:15:09.250Z,3.34
2023-03-06T20:17:38.321Z,3.44
2023-03-06T20:20:07.375Z,3.37
2023-03-06T20:22:37.281Z,3.43
2023-03-06T20:25:08.319Z,3.46
2023-03-06T20:27:38.142Z,3.44
2023-03-06T20:30:08.017Z,3.42
2023-03-06T20:32:35.480Z,3.36
2023-03-06T20:35:03.472Z,3.35
2023-03-06T20:37:30.897Z,3.26
2023-03-06T20:40:00.453Z,3.26
2023-03-06T20:42:27.831Z,3.28
2023-03-06T20:44:55.797Z,3.24
2023-03-06T20:47:23.165Z,3.08
2023-03-06T20:49:50.428Z,3.02
2023-03-06T20:52:17.722Z,2.78
2023-03-06T20:54:45.784Z,2.71
2023-03-06T20:57:14.473Z,2.78
2023-03-06T20:59:43.664Z,2.83
2023-03-06T21:02:11.889Z,2.90
2023-03-06T21:04:40.907Z,2.96
2023-03-06T21:07:08.252Z,3.00
2023-03-06T21:09:37.648Z,3.07
2023-03-06T21:12:05.215Z,3.14
2023-03-06T21:14:33.900Z,3.22
2023-03-06T21:17:02.249Z,3.23
2023-03-06T21:19:32.574Z,3.26
2023-03-06T21:21:59.829Z,3.25
2023-03-06T21:24:27.111Z,3.29
2023-03-06T21:26:54.421Z,3.22
2023-03-06T21:29:21.699Z,3.29
2023-03-06T21:31:50.366Z,3.27
2023-03-06T21:34:17.714Z,3.24
2023-03-06T21:36:45.562Z,3.31
2023-03-06T21:39:14.266Z,3.24
2023-03-06T21:41:42.231Z,3.30
2023-03-06T21:44:09.565Z,3.37
2023-03-06T21:46:37.145Z,3.34
2023-03-06T21:49:05.923Z,3.31
2023-03-06T21:51:33.499Z,3.34
2023-03-06T21:54:02.210Z,3.26
2023-03-06T21:56:30.418Z,3.22
2023-03-06T21:58:58.519Z,3.23
2023-03-06T22:01:27.490Z,3.23
2023-03-06T22:03:55.631Z,2.96
2023-03-06T22:06:25.699Z,2.77
2023-03-06T22:08:54.236Z,2.61
2023-03-06T22:11:22.521Z,2.61
2023-03-06T22:13:50.279Z,2.58
2023-03-06T22:16:18.155Z,2.58
2023-03-06T22:18:46.353Z,2.41
2023-03-06T22:21:14.873Z,2.32
2023-03-06T22:23:43.924Z,2.32
2023-03-06T22:26:12.556Z,2.25
2023-03-06T22:28:40.188Z,2.26
2023-03-06T22:31:08.050Z,2.23
2023-03-06T22:33:35.385Z,2.25
2023-03-06T22:36:06.005Z,2.17
2023-03-06T22:38:33.439Z,2.10
2023-03-06T22:41:02.318Z,2.01
2023-03-06T22:43:29.622Z,2.16
2023-03-06T22:46:01.152Z,2.28
2023-03-06T22:48:28.524Z,2.20
2023-03-06T22:50:55.792Z,2.14
2023-03-06T22:53:23.052Z,2.16
2023-03-06T22:55:50.339Z,2.23
2023-03-06T22:58:18.920Z,2.21
2023-03-06T23:00:46.188Z,2.09
2023-03-06T23:03:13.471Z,2.13
2023-03-06T23:05:41.150Z,2.10
2023-03-06T23:08:08.418Z,2.02
2023-03-06T23:10:37.390Z,2.08
2023-03-06T23:13:04.688Z,2.05
2023-03-06T23:15:33.409Z,2.14
2023-03-06T23:18:01.063Z,2.25
2023-03-06T23:20:28.359Z,2.32
2023-03-06T23:22:55.669Z,2.33
2023-03-06T23:25:23.020Z,2.36
2023-03-06T23:27:50.328Z,2.41
2023-03-06T23:30:17.772Z,2.62
2023-03-06T23:32:46.358Z,2.68
2023-03-06T23:35:13.888Z,2.67
2023-03-06T23:37:41.193Z,2.80
2023-03-06T23:40:09.837Z,2.81
2023-03-06T23:42:37.176Z,2.60
2023-03-06T23:45:05.142Z,2.80
2023-03-06T23:47:32.892Z,2.74
2023-03-06T23:50:01.512Z,2.74
2023-03-06T23:52:28.792Z,2.81
2023-03-06T23:54:56.059Z,2.86
2023-03-06T23:57:23.310Z,2.74
2023-03-06T23:59:50.599Z,2.62
